地図

経路データ

SID SEASON NUMBER BASIN SUBBASIN NAME ISO_TIME NATURE LAT LON WMO_WIND WMO_PRES WMO_AGENCY TRACK_TYPE DIST2LAND LANDFALL IFLAG USA_AGENCY USA_ATCF_ID USA_LAT USA_LON USA_RECORD USA_STATUS USA_WIND USA_PRES USA_SSHS USA_R34_NE USA_R34_SE USA_R34_SW USA_R34_NW USA_R50_NE USA_R50_SE USA_R50_SW USA_R50_NW USA_R64_NE USA_R64_SE USA_R64_SW USA_R64_NW USA_POCI USA_ROCI USA_RMW USA_EYE TOKYO_LAT TOKYO_LON TOKYO_GRADE TOKYO_WIND TOKYO_PRES TOKYO_R50_DIR TOKYO_R50_LONG TOKYO_R50_SHORT TOKYO_R30_DIR TOKYO_R30_LONG TOKYO_R30_SHORT TOKYO_LAND CMA_LAT CMA_LON CMA_CAT CMA_WIND CMA_PRES HKO_LAT HKO_LON HKO_CAT HKO_WIND HKO_PRES NEWDELHI_LAT NEWDELHI_LON NEWDELHI_GRADE NEWDELHI_WIND NEWDELHI_PRES NEWDELHI_CI NEWDELHI_DP NEWDELHI_POCI REUNION_LAT REUNION_LON REUNION_TYPE REUNION_WIND REUNION_PRES REUNION_TNUM REUNION_CI REUNION_RMW REUNION_R34_NE REUNION_R34_SE REUNION_R34_SW REUNION_R34_NW REUNION_R50_NE REUNION_R50_SE REUNION_R50_SW REUNION_R50_NW REUNION_R64_NE REUNION_R64_SE REUNION_R64_SW REUNION_R64_NW BOM_LAT BOM_LON BOM_TYPE BOM_WIND BOM_PRES BOM_TNUM BOM_CI BOM_RMW BOM_R34_NE BOM_R34_SE BOM_R34_SW BOM_R34_NW BOM_R50_NE BOM_R50_SE BOM_R50_SW BOM_R50_NW BOM_R64_NE BOM_R64_SE BOM_R64_SW BOM_R64_NW BOM_ROCI BOM_POCI BOM_EYE BOM_POS_METHOD BOM_PRES_METHOD NADI_LAT NADI_LON NADI_CAT NADI_WIND NADI_PRES WELLINGTON_LAT WELLINGTON_LON WELLINGTON_WIND WELLINGTON_PRES DS824_LAT DS824_LON DS824_STAGE DS824_WIND DS824_PRES TD9636_LAT TD9636_LON TD9636_STAGE TD9636_WIND TD9636_PRES TD9635_LAT TD9635_LON TD9635_WIND TD9635_PRES TD9635_ROCI NEUMANN_LAT NEUMANN_LON NEUMANN_CLASS NEUMANN_WIND NEUMANN_PRES MLC_LAT MLC_LON MLC_CLASS MLC_WIND MLC_PRES USA_GUST BOM_GUST BOM_GUST_PER REUNION_GUST REUNION_GUST_PER USA_SEAHGT USA_SEARAD_NE USA_SEARAD_SE USA_SEARAD_SW USA_SEARAD_NW STORM_SPEED STORM_DIR
1908241N19087 1908 33 NI BB NOT_NAMED 1908-08-28 00:00:00 TS 19.3000 87.4000 main 130 115 _________O____ -1 19.3000 87.4000 TC 34 3 294
1908241N19087 1908 33 NI BB NOT_NAMED 1908-08-28 03:00:00 TS 19.3584 87.2600 main 115 92 _________PO___ -1 19.3876 87.1900 TC 36 19.3000 87.4000 2 3 300
1908241N19087 1908 33 NI BB NOT_NAMED 1908-08-28 06:00:00 TS 19.4726 87.0827 main 92 68 _________OP___ -1 19.5000 87.0000 TC 39 19.4315 87.2067 2 4 308
1908241N19087 1908 33 NI BB NOT_NAMED 1908-08-28 09:00:00 TS 19.6116 86.9188 main 68 53 _________PP___ -1 19.6500 86.8425 TC 42 19.5604 87.0206 2 4 313
1908241N19087 1908 33 NI BB NOT_NAMED 1908-08-28 12:00:00 TS 19.7420 86.7746 main 53 30 _________OP___ -1 19.8000 86.7000 TC 45 19.6840 86.8491 2 4 311
1908241N19087 1908 33 NI BB NOT_NAMED 1908-08-28 15:00:00 TS 19.8500 86.6250 main 30 15 _________PO___ -1 19.9000 86.5499 TC 41 19.8000 86.7000 3 3 308
1908241N19087 1908 33 NI BB NOT_NAMED 1908-08-28 18:00:00 TS 19.9542 86.4874 main 10 0 _________OP___ -1 20.0000 86.4000 TC 37 19.9084 86.5748 3 3 312
1908241N19087 1908 33 NI BB NOT_NAMED 1908-08-28 21:00:00 TS 20.0734 86.3658 main 0 0 _________PP___ -1 20.1274 86.2798 TC 33 20.0195 86.4517 3 4 315
1908241N19087 1908 33 NI BB NOT_NAMED 1908-08-29 00:00:00 TS 20.2229 86.2014 main 0 0 _________OP___ -1 20.3000 86.1000 TC 30 20.1458 86.3028 3 5 311
1908241N19087 1908 33 NI BB NOT_NAMED 1908-08-29 03:00:00 TS 20.4213 85.9401 main 0 0 _________PO___ -1 20.5426 85.7801 TC 30 20.3000 86.1000 1 7 307
1908241N19087 1908 33 NI BB NOT_NAMED 1908-08-29 06:00:00 TS 20.6461 85.6099 main 0 0 _________OP___ -1 20.8000 85.4000 TC 30 20.4922 85.8197 1 8 305
1908241N19087 1908 33 NI BB NOT_NAMED 1908-08-29 09:00:00 TS 20.8562 85.2699 main 0 0 _________PP___ -1 20.9999 85.0573 TC 30 20.7125 85.4824 1 8 303
1908241N19087 1908 33 NI BB NOT_NAMED 1908-08-29 12:00:00 TS 21.0758 84.9020 main 0 0 _________OP___ -1 21.2000 84.7000 TC 30 20.9515 85.1039 1 9 303
1908241N19087 1908 33 NI BB NOT_NAMED 1908-08-29 15:00:00 TS 21.3212 84.5075 main 0 0 _________PO___ -1 21.4424 84.3149 TC 30 21.2000 84.7000 1 9 304
1908241N19087 1908 33 NI BB NOT_NAMED 1908-08-29 18:00:00 TS 21.5775 84.0943 main 0 0 _________OP___ -1 21.7000 83.9000 TC 30 21.4551 84.2886 1 10 303
1908241N19087 1908 33 NI BB NOT_NAMED 1908-08-29 21:00:00 TS 21.8401 83.6539 main 0 0 _________PP___ -1 21.9650 83.4501 TC 30 21.7151 83.8578 1 10 302
1908241N19087 1908 33 NI BB NOT_NAMED 1908-08-30 00:00:00 TS 22.0838 83.2115 main 0 0 _________OP___ -1 22.2000 83.0000 TC 30 21.9676 83.4230 1 9 299
1908241N19087 1908 33 NI BB NOT_NAMED 1908-08-30 03:00:00 TS 22.2787 82.7924 main 0 0 _________PO___ -1 22.3574 82.5847 TC 30 22.2000 83.0000 1 8 296
1908241N19087 1908 33 NI BB NOT_NAMED 1908-08-30 06:00:00 TS 22.4461 82.4029 main 0 0 _________OP___ -1 22.5000 82.2000 TC 30 22.3921 82.6059 1 8 297
1908241N19087 1908 33 NI BB NOT_NAMED 1908-08-30 09:00:00 TS 22.6284 82.0345 main 0 0 _________PP___ -1 22.6924 81.8424 TC 30 22.5645 82.2266 1 8 299
1908241N19087 1908 33 NI BB NOT_NAMED 1908-08-30 12:00:00 TS 22.8148 81.6795 main 0 0 _________OP___ -1 22.9000 81.5000 TC 30 22.7297 81.8591 1 8 300
1908241N19087 1908 33 NI BB NOT_NAMED 1908-08-30 15:00:00 TS 23.0000 81.3250 main 0 0 _________PO___ -1 23.0999 81.1499 TC 30 22.9000 81.5000 1 8 300
1908241N19087 1908 33 NI BB NOT_NAMED 1908-08-30 18:00:00 TS 23.1942 80.9732 main 0 0 _________OP___ -1 23.3000 80.8000 TC 30 23.0884 81.1465 1 8 301
1908241N19087 1908 33 NI BB NOT_NAMED 1908-08-30 21:00:00 TS 23.3885 80.6246 main 0 0 _________PP___ -1 23.4924 80.4498 TC 30 23.2845 80.7994 1 8 302
1908241N19087 1908 33 NI BB NOT_NAMED 1908-08-31 00:00:00 TS 23.5942 80.2763 main 0 0 _________OP___ -1 23.7000 80.1000 TC 30 23.4884 80.4527 1 8 304
1908241N19087 1908 33 NI BB NOT_NAMED 1908-08-31 03:00:00 TS 23.8249 79.9287 main 0 0 _________PO___ -1 23.9499 79.7574 TC 30 23.7000 80.1000 1 8 306
1908241N19087 1908 33 NI BB NOT_NAMED 1908-08-31 06:00:00 TS 24.0608 79.5660 main 0 0 _________OP___ -1 24.2000 79.4000 TC 30 23.9217 79.7320 1 8 304
1908241N19087 1908 33 NI BB NOT_NAMED 1908-08-31 09:00:00 TS 24.2786 79.1786 main 0 0 _________PP___ -1 24.4075 78.9999 TC 30 24.1497 79.3573 1 8 301
1908241N19087 1908 33 NI BB NOT_NAMED 1908-08-31 12:00:00 TS 24.4890 78.7894 main 0 0 _________OP___ -1 24.6000 78.6000 TC 30 24.3779 78.9789 1 8 302
1908241N19087 1908 33 NI BB NOT_NAMED 1908-08-31 15:00:00 TS 24.6999 78.4249 main 0 0 _________PO___ -1 24.7998 78.2498 TC 30 24.6000 78.6000 1 8 302
1908241N19087 1908 33 NI BB NOT_NAMED 1908-08-31 18:00:00 TS 24.8972 78.0681 main 0 0 _________OP___ -1 25.0000 77.9000 TC 30 24.7945 78.2363 1 8 300
1908241N19087 1908 33 NI AS NOT_NAMED 1908-08-31 21:00:00 TS 25.0883 77.6930 main 0 0 _________PP___ -1 25.1924 77.5148 TC 30 24.9843 77.8711 1 8 299
1908241N19087 1908 33 NI AS NOT_NAMED 1908-09-01 00:00:00 TS 25.2910 77.2978 main 0 0 _________OP___ -1 25.4000 77.1000 TC 30 25.1819 77.4955 1 9 300
1908241N19087 1908 33 NI AS NOT_NAMED 1908-09-01 03:00:00 TS 25.5175 76.8787 main 0 0 _________PO___ -1 25.6349 76.6573 TC 30 25.4000 77.1000 1 9 302
1908241N19087 1908 33 NI AS NOT_NAMED 1908-09-01 06:00:00 TS 25.7748 76.4297 main 0 0 _________OP___ -1 25.9000 76.2000 TC 30 25.6495 76.6594 1 10 303
1908241N19087 1908 33 NI AS NOT_NAMED 1908-09-01 09:00:00 TS 26.0563 75.9712 main 0 0 _________PP___ -1 26.1924 75.7424 TC 30 25.9202 76.2001 1 10 305
1908241N19087 1908 33 NI AS NOT_NAMED 1908-09-01 12:00:00 TS 26.3529 75.5203 main 0 0 _________OP___ -1 26.5000 75.3000 TC 30 26.2058 75.7406 1 10 307
1908241N19087 1908 33 NI AS NOT_NAMED 1908-09-01 15:00:00 TS 26.6499 75.0924 main 0 0 _________PO___ -1 26.7999 74.8848 TC 30 26.5000 75.3000 1 10 309
1908241N19087 1908 33 NI AS NOT_NAMED 1908-09-01 18:00:00 TS 26.9483 74.6915 main 0 0 _________OP___ -1 27.1000 74.5000 TC 30 26.7966 74.8829 1 9 311
1908241N19087 1908 33 NI AS NOT_NAMED 1908-09-01 21:00:00 TS 27.2536 74.3086 main 0 0 _________PP___ -1 27.4074 74.1274 TC 30 27.0997 74.4898 1 9 313
1908241N19087 1908 33 NI AS NOT_NAMED 1908-09-02 00:00:00 TS 27.5515 73.9634 main 0 0 _________OP___ -1 27.7000 73.8000 TC 30 27.4030 74.1268 1 8 315
1908241N19087 1908 33 NI AS NOT_NAMED 1908-09-02 03:00:00 TS 27.8249 73.6673 main 0 0 _________PO___ -1 27.9499 73.5347 TC 30 27.7000 73.8000 1 7 317
1908241N19087 1908 33 NI AS NOT_NAMED 1908-09-02 06:00:00 TS 28.0909 73.4006 main 0 0 _________OP___ -1 28.2000 73.3000 TC 30 27.9818 73.5012 1 7 320
1908241N19087 1908 33 NI AS NOT_NAMED 1908-09-02 09:00:00 TS 28.3785 73.1409 main 0 0 _________PP___ -1 28.5000 73.0425 TC 30 28.2570 73.2392 1 7 323
1908241N19087 1908 33 NI AS NOT_NAMED 1908-09-02 12:00:00 TS 28.6644 72.9038 main 0 0 _________OP___ -1 28.8000 72.8000 TC 30 28.5288 73.0076 1 7 324
1908241N19087 1908 33 NI AS NOT_NAMED 1908-09-02 15:00:00 TS 28.9250 72.6924 main 0 0 _________PO___ -1 29.0500 72.5848 TC 30 28.8000 72.8000 1 7 326
1908241N19087 1908 33 NI AS NOT_NAMED 1908-09-02 18:00:00 TS 29.2017 72.4896 main 0 0 _________OP___ -1 29.3000 72.4000 TC 30 29.1033 72.5791 1 7 330
1908241N19087 1908 33 NI AS NOT_NAMED 1908-09-02 21:00:00 TS 29.5125 72.3052 main 0 0 _________PP___ -1 29.6225 72.2276 TC 30 29.4024 72.3827 1 7 334
1908241N19087 1908 33 NI AS NOT_NAMED 1908-09-03 00:00:00 TS 29.7876 72.1599 main 0 0 _________OP___ -1 29.9000 72.1000 TC 30 29.6753 72.2199 1 5 335
1908241N19087 1908 33 NI AS NOT_NAMED 1908-09-03 03:00:00 TS 29.9650 72.0637 main 0 0 _________PO___ -1 30.0300 72.0274 TC 30 29.9000 72.1000 1 3 336
1908241N19087 1908 33 NI AS NOT_NAMED 1908-09-03 06:00:00 TS 30.0730 72.0136 main 0 0 _________OP___ -1 30.1000 72.0000 TC 30 30.0461 72.0272 1 2 347
1908241N19087 1908 33 NI AS NOT_NAMED 1908-09-03 09:00:00 TS 30.1724 71.9947 main 0 0 _________PP___ -1 30.2000 71.9925 TC 30 30.1448 71.9968 1 2 0
1908241N19087 1908 33 NI AS NOT_NAMED 1908-09-03 12:00:00 TS 30.2606 71.9965 main 0 0 _________OP___ -1 30.3000 72.0000 TC 30 30.2211 71.9931 1 2 0
1908241N19087 1908 33 NI AS NOT_NAMED 1908-09-03 15:00:00 TS 30.3462 72.0000 main 0 0 _________PO___ -1 30.3925 72.0000 TC 30 30.3000 72.0000 1 2 0
1908241N19087 1908 33 NI AS NOT_NAMED 1908-09-03 18:00:00 TS 30.4548 71.9863 main 0 0 _________OP___ -1 30.5000 72.0000 TC 30 30.4096 71.9727 1 2 0
1908241N19087 1908 33 NI AS NOT_NAMED 1908-09-03 21:00:00 TS 30.5812 71.9702 main 0 0 _________PP___ -1 30.6350 71.9851 TC 30 30.5274 71.9553 1 3 356
1908241N19087 1908 33 NI AS NOT_NAMED 1908-09-04 00:00:00 TS 30.7282 71.9801 main 0 0 _________OP___ -1 30.8000 72.0000 TC 30 30.6565 71.9603 1 3 10
1908241N19087 1908 33 NI AS NOT_NAMED 1908-09-04 03:00:00 TS 30.9000 72.0387 main 0 0 _________PO___ -1 31.0000 72.0775 TC 30 30.8000 72.0000 1 4 20
1908241N19087 1908 33 NI AS NOT_NAMED 1908-09-04 06:00:00 TS 31.0884 72.1323 main 0 0 _________OP___ -1 31.2000 72.2000 TC 30 30.9767 72.0645 1 4 26
1908241N19087 1908 33 NI AS NOT_NAMED 1908-09-04 09:00:00 TS 31.2648 72.2474 main 0 0 _________PP___ -1 31.3649 72.3276 TC 30 31.1647 72.1673 1 4 35
1908241N19087 1908 33 NI AS NOT_NAMED 1908-09-04 12:00:00 TS 31.4227 72.4057 main 0 0 _________OP___ -1 31.5000 72.5000 TC 30 31.3454 72.3114 1 4 47
1908241N19087 1908 33 NI AS NOT_NAMED 1908-09-04 15:00:00 TS 31.5575 72.6138 main 0 0 _________PO___ -1 31.6150 72.7275 TC 30 31.5000 72.5000 1 4 59
1908241N19087 1908 33 NI AS NOT_NAMED 1908-09-04 18:00:00 TS 31.6513 72.8477 main 0 0 _________OP___ -1 31.7000 73.0000 TC 30 31.6148 72.7335 1 5 69
1908241N19087 1908 33 NI AS NOT_NAMED 1908-09-04 21:00:00 TS 31.7205 73.1195 main 0 0 _________PP___ -1 31.7576 73.2950 TC 30 31.6958 73.0025 1 5 76
1908241N19087 1908 33 NI AS NOT_NAMED 1908-09-05 00:00:00 TS 31.7692 73.3969 main 0 0 _________OP___ -1 31.8000 73.6000 TC 30 31.7538 73.2953 1 4 79
1908241N19087 1908 33 NI AS NOT_NAMED 1908-09-05 03:00:00 NR 31.8000 73.6000 main 0 __________O___ -1 TC 31.8000 73.6000 1 4 80

IBTrACS Databaseについて

本データベースは、米国NOAAが公開する1842年以降の世界の熱帯低気圧のベストトラックデータアーカイブInternational Best Track Archive for Climate Stewardship (IBTrACS)を、ウェブで閲覧しやすい形式に変換したものです。

最終更新日:2021-12-06